Time;durP1;ratioP1;P1;durP2;ratioP2;P2;SDS_P1;SDS_P2;PMS_P1;PMS_P2;Temp;Humidity;BMP_temperature;BMP_pressure;BME280_temperature;BME280_humidity;BME280_pressure;Samples;Min_cycle;Max_cycle;Signal;HPM_P1;HPM_P2
2021/06/01 00:08:18;;;;;;;3.22;2.45;;;12.80;99.90;;;;;;21005035;28;20052;-76
2021/06/01 00:18:19;;;;;;;3.38;2.35;;;12.80;99.90;;;;;;21000160;28;20058;-76
2021/06/01 00:28:20;;;;;;;3.25;2.55;;;12.60;99.90;;;;;;20999361;28;20024;-76
2021/06/01 00:38:21;;;;;;;7.13;2.83;;;12.30;99.90;;;;;;20998231;28;20505;-76
2021/06/01 00:48:22;;;;;;;3.47;2.35;;;12.30;99.90;;;;;;20996221;28;20154;-76
2021/06/01 00:58:25;;;;;;;4.05;2.75;;;12.20;99.90;;;;;;20996149;28;20056;-76
2021/06/01 01:18:40;;;;;;;6.47;2.60;;;11.90;99.90;;;;;;20995916;28;20032;-76
2021/06/01 01:29:07;;;;;;;4.80;2.80;;;11.80;99.90;;;;;;20993021;28;20032;-76
2021/06/01 01:39:09;;;;;;;7.75;2.80;;;11.80;99.90;;;;;;20993026;28;20089;-76
2021/06/01 01:49:23;;;;;;;4.65;2.63;;;11.60;99.90;;;;;;20991705;28;20228;-76
2021/06/01 01:59:27;;;;;;;4.07;2.70;;;11.50;99.90;;;;;;20991989;28;20028;-76
2021/06/01 02:09:28;;;;;;;6.43;3.45;;;11.40;99.90;;;;;;20991461;28;20453;-76
2021/06/01 02:19:29;;;;;;;5.07;2.60;;;11.30;99.90;;;;;;20990652;28;20071;-76
2021/06/01 02:29:42;;;;;;;5.53;2.97;;;11.20;99.90;;;;;;20994389;28;20072;-76
2021/06/01 02:39:43;;;;;;;5.05;2.80;;;11.10;99.90;;;;;;20989123;28;20107;-76
2021/06/01 02:49:45;;;;;;;5.27;3.13;;;10.60;99.90;;;;;;20988693;28;20445;-76
2021/06/01 02:59:47;;;;;;;5.60;3.00;;;10.50;99.90;;;;;;21001815;28;20028;-76
2021/06/01 03:09:48;;;;;;;6.63;3.15;;;10.30;99.90;;;;;;21003445;28;20042;-75
2021/06/01 03:19:49;;;;;;;4.87;2.77;;;10.10;99.90;;;;;;21013695;28;20032;-76
2021/06/01 03:29:50;;;;;;;4.20;2.77;;;9.90;99.90;;;;;;21004406;28;20025;-76
2021/06/01 03:39:52;;;;;;;3.93;3.00;;;9.70;99.90;;;;;;21012098;28;20066;-76
2021/06/01 03:49:54;;;;;;;5.40;2.97;;;9.80;99.90;;;;;;21068552;28;20032;-76
2021/06/01 03:59:55;;;;;;;4.20;2.65;;;9.80;99.90;;;;;;21085201;28;20395;-76
2021/06/01 04:09:56;;;;;;;6.17;2.93;;;9.80;99.90;;;;;;21084064;28;20036;-76
2021/06/01 04:19:57;;;;;;;4.33;3.13;;;9.90;99.90;;;;;;21083773;28;20055;-76
2021/06/01 04:29:58;;;;;;;8.23;3.13;;;9.80;99.90;;;;;;21083250;28;20032;-76
2021/06/01 04:39:59;;;;;;;6.80;2.97;;;9.80;99.90;;;;;;21083011;28;20046;-76
2021/06/01 04:50:00;;;;;;;4.53;3.00;;;10.20;99.90;;;;;;21081061;28;20367;-76
2021/06/01 05:00:01;;;;;;;5.10;3.33;;;10.50;99.90;;;;;;21060411;28;20744;-77
2021/06/01 05:10:03;;;;;;;6.37;3.57;;;10.70;99.90;;;;;;20918998;28;20127;-76
2021/06/01 05:20:05;;;;;;;6.47;3.90;;;10.80;99.90;;;;;;20851567;23;20056;-76
2021/06/01 05:30:07;;;;;;;5.88;3.83;;;11.10;99.90;;;;;;20830319;28;20033;-76
2021/06/01 05:40:09;;;;;;;9.93;4.22;;;11.30;99.90;;;;;;20847638;28;20057;-78
2021/06/01 05:50:10;;;;;;;5.20;3.83;;;11.50;99.90;;;;;;20815737;28;20063;-77
2021/06/01 06:00:12;;;;;;;9.40;3.40;;;11.90;99.90;;;;;;20831570;28;20102;-77
2021/06/01 06:10:13;;;;;;;9.93;2.93;;;12.50;99.90;;;;;;20833485;28;20491;-77
2021/06/01 06:20:15;;;;;;;7.00;3.70;;;13.20;99.90;;;;;;20831898;28;20038;-77
2021/06/01 06:30:17;;;;;;;4.22;3.20;;;13.40;99.90;;;;;;20830622;28;20029;-78
2021/06/01 06:40:18;;;;;;;;;;;14.10;99.90;;;;;;20831247;28;20496;-78
2021/06/01 06:50:21;;;;;;;9.30;3.42;;;14.60;99.90;;;;;;20830627;28;19968;-78
2021/06/01 07:00:24;;;;;;;9.38;3.47;;;15.10;99.90;;;;;;20827817;28;20029;-77
2021/06/01 07:10:25;;;;;;;4.05;2.97;;;15.20;99.90;;;;;;20830023;28;20069;-77
2021/06/01 07:20:31;;;;;;;5.00;3.00;;;16.00;99.90;;;;;;20829777;28;20037;-77
2021/06/01 07:30:32;;;;;;;3.80;2.83;;;16.00;99.90;;;;;;20827302;28;20033;-77
2021/06/01 07:40:33;;;;;;;7.43;2.70;;;16.50;99.90;;;;;;20830431;28;20060;-79
2021/06/01 07:50:34;;;;;;;5.68;2.92;;;16.80;99.90;;;;;;20853960;28;20030;-77
2021/06/01 08:00:35;;;;;;;4.67;2.73;;;17.90;99.90;;;;;;20851693;28;20033;-78
2021/06/01 08:10:36;;;;;;;4.40;3.23;;;18.00;99.90;;;;;;20852445;28;20121;-78
2021/06/01 08:20:40;;;;;;;4.37;2.67;;;18.50;99.90;;;;;;20835325;28;20044;-78
2021/06/01 08:30:41;;;;;;;3.90;2.42;;;19.80;99.90;;;;;;20854799;28;20041;-78
2021/06/01 08:40:45;;;;;;;4.20;2.90;;;19.80;99.90;;;;;;20853639;28;20037;-79
2021/06/01 08:50:48;;;;;;;4.65;2.42;;;19.40;99.90;;;;;;20852766;28;20036;-79
2021/06/01 09:00:49;;;;;;;4.00;2.45;;;20.10;99.90;;;;;;20855894;28;20033;-78
2021/06/01 09:11:06;;;;;;;4.87;2.40;;;21.40;99.90;;;;;;20849947;28;20034;-78
2021/06/01 09:21:14;;;;;;;5.63;2.72;;;20.30;99.90;;;;;;20849445;28;20038;-78
2021/06/01 09:31:18;;;;;;;2.80;2.25;;;22.30;99.90;;;;;;20849551;28;20033;-77
2021/06/01 09:41:25;;;;;;;3.28;2.25;;;22.90;99.90;;;;;;20854665;28;20045;-78
2021/06/01 09:51:31;;;;;;;19.33;2.40;;;23.30;99.30;;;;;;20843616;28;20038;-77
2021/06/01 10:01:32;;;;;;;6.47;2.42;;;22.90;99.60;;;;;;20840811;28;20072;-77
2021/06/01 10:11:33;;;;;;;2.47;1.85;;;23.40;98.40;;;;;;20837753;28;20033;-77
2021/06/01 10:21:34;;;;;;;4.00;1.80;;;23.40;99.90;;;;;;20831086;28;20112;-77
2021/06/01 10:31:37;;;;;;;2.67;1.60;;;24.20;98.60;;;;;;20825824;28;20029;-77
2021/06/01 10:52:16;;;;;;;4.82;1.90;;;24.30;95.90;;;;;;20830153;28;20029;-79
2021/06/01 11:02:18;;;;;;;5.33;2.03;;;25.10;98.40;;;;;;20825409;28;20484;-77
2021/06/01 11:12:20;;;;;;;3.10;1.98;;;24.50;96.90;;;;;;20837688;22;20041;-75
2021/06/01 11:22:35;;;;;;;5.82;2.15;;;24.50;97.30;;;;;;20853909;28;20025;-78
2021/06/01 11:43:09;;;;;;;4.57;1.70;;;26.10;92.90;;;;;;20846824;28;20041;-77
2021/06/01 11:53:16;;;;;;;2.45;1.90;;;26.20;95.50;;;;;;20840228;28;20061;-77
2021/06/01 12:03:18;;;;;;;1.52;1.30;;;26.20;95.10;;;;;;20867694;28;20571;-78
2021/06/01 12:23:37;;;;;;;5.28;1.75;;;26.30;93.20;;;;;;20875820;28;20037;-77
2021/06/01 12:33:39;;;;;;;6.65;1.90;;;26.80;93.10;;;;;;20851828;28;20100;-79
2021/06/01 12:43:51;;;;;;;8.48;2.00;;;26.80;94.20;;;;;;20853079;28;20109;-79
2021/06/01 13:46:41;;;;;;;5.45;1.70;;;27.40;89.90;;;;;;20838313;28;20048;-79
2021/06/01 13:56:44;;;;;;;1.65;1.40;;;27.90;90.20;;;;;;20857391;28;20064;-80
2021/06/01 15:49:51;;;;;;;7.63;2.00;;;26.40;79.00;;;;;;20882103;28;20040;-76
2021/06/01 17:12:27;;;;;;;3.95;1.98;;;25.10;82.70;;;;;;20894729;28;20029;-78
2021/06/01 17:22:51;;;;;;;1.85;1.58;;;25.30;81.90;;;;;;20892282;28;20154;-77
2021/06/01 17:43:13;;;;;;;3.58;1.83;;;24.90;80.80;;;;;;20807825;28;20091;-78
2021/06/01 17:53:16;;;;;;;4.88;1.60;;;24.70;80.00;;;;;;20882716;28;20061;-78
2021/06/01 18:03:18;;;;;;;4.28;1.42;;;25.50;80.20;;;;;;20889099;28;20685;-78
2021/06/01 19:56:31;;;;;;;4.45;1.75;;;18.90;96.00;;;;;;20825560;28;20116;-77
2021/06/01 20:06:33;;;;;;;3.58;1.60;;;18.60;95.90;;;;;;20816796;28;20049;-77
2021/06/01 20:16:40;;;;;;;2.78;1.73;;;18.30;96.80;;;;;;20814129;28;20128;-77
2021/06/01 20:26:43;;;;;;;5.47;2.15;;;17.80;98.10;;;;;;20813749;28;20045;-77
2021/06/01 20:36:44;;;;;;;6.60;2.10;;;17.50;99.00;;;;;;20814336;28;20030;-76
2021/06/01 20:46:45;;;;;;;3.03;1.80;;;17.20;99.90;;;;;;20836584;28;20029;-76
2021/06/01 20:56:47;;;;;;;2.83;2.13;;;17.20;99.00;;;;;;20893788;28;20041;-77
2021/06/01 21:06:48;;;;;;;4.60;2.20;;;17.10;99.00;;;;;;20807792;28;20371;-76
2021/06/01 21:16:50;;;;;;;3.20;2.30;;;16.70;99.90;;;;;;20811836;28;20030;-77
2021/06/01 21:26:51;;;;;;;5.65;1.85;;;16.30;99.90;;;;;;20809040;28;20037;-76
2021/06/01 21:36:53;;;;;;;3.90;2.08;;;16.20;99.90;;;;;;20810641;28;20021;-76
2021/06/01 21:47:04;;;;;;;4.72;2.50;;;16.10;99.90;;;;;;20827884;28;20369;-76
2021/06/01 21:57:09;;;;;;;5.40;2.30;;;16.00;99.90;;;;;;20806612;28;20492;-76
2021/06/01 22:07:11;;;;;;;2.65;1.98;;;16.10;99.90;;;;;;20825107;28;20029;-76
2021/06/01 22:17:14;;;;;;;;;;;16.10;99.80;;;;;;20825529;28;20034;-76
2021/06/01 22:27:17;;;;;;;3.70;1.95;;;15.80;99.90;;;;;;20822726;28;19909;-75
2021/06/01 22:37:19;;;;;;;2.20;1.70;;;15.90;99.90;;;;;;20823743;28;20037;-75
2021/06/01 22:47:21;;;;;;;5.50;2.45;;;15.50;99.90;;;;;;20820190;28;20116;-76
2021/06/01 22:57:25;;;;;;;3.17;1.93;;;15.40;99.90;;;;;;20823093;28;20036;-75
2021/06/01 23:07:30;;;;;;;4.15;2.28;;;15.30;99.90;;;;;;20822223;28;20399;-74
2021/06/01 23:17:35;;;;;;;6.50;2.25;;;15.30;99.90;;;;;;20836727;28;20036;-76
2021/06/01 23:27:37;;;;;;;4.63;2.08;;;15.30;99.90;;;;;;20839606;28;20033;-76
2021/06/01 23:38:20;;;;;;;2.55;2.00;;;15.20;99.90;;;;;;20842759;28;20034;-75
2021/06/01 23:58:21;;;;;;;4.72;2.60;;;14.70;99.90;;;;;;20836825;28;20401;-75
